sensor_id;sensor_type;location;lat;lon;timestamp;pressure;altitude;pressure_sealevel;temperature;humidity
44926;BME280;30662;51.210;7.656;2023-01-28T00:02:08;148753.91;;;-0.28;100.00
44926;BME280;30662;51.210;7.656;2023-01-28T00:04:34;148735.09;;;-0.36;100.00
44926;BME280;30662;51.210;7.656;2023-01-28T00:06:59;148752.66;;;-0.29;100.00
44926;BME280;30662;51.210;7.656;2023-01-28T00:09:25;148740.09;;;-0.34;100.00
44926;BME280;30662;51.210;7.656;2023-01-28T00:11:51;148738.84;;;-0.34;100.00
44926;BME280;30662;51.210;7.656;2023-01-28T00:14:17;148740.09;;;-0.34;100.00
44926;BME280;30662;51.210;7.656;2023-01-28T00:16:43;148763.94;;;-0.24;100.00
44926;BME280;30662;51.210;7.656;2023-01-28T00:19:09;148756.41;;;-0.27;100.00
44926;BME280;30662;51.210;7.656;2023-01-28T00:21:35;148723.78;;;-0.40;100.00
44926;BME280;30662;51.210;7.656;2023-01-28T00:24:01;148732.53;;;-0.37;100.00
44926;BME280;30662;51.210;7.656;2023-01-28T00:26:26;148736.34;;;-0.35;100.00
44926;BME280;30662;51.210;7.656;2023-01-28T00:28:52;148726.28;;;-0.39;100.00
44926;BME280;30662;51.210;7.656;2023-01-28T00:31:23;148733.84;;;-0.36;100.00
44926;BME280;30662;51.210;7.656;2023-01-28T00:33:50;148713.72;;;-0.44;100.00
44926;BME280;30662;51.210;7.656;2023-01-28T00:36:17;148707.44;;;-0.47;100.00
44926;BME280;30662;51.210;7.656;2023-01-28T00:38:49;148740.09;;;-0.34;100.00
44926;BME280;30662;51.210;7.656;2023-01-28T00:41:17;148750.09;;;-0.30;100.00
44926;BME280;30662;51.210;7.656;2023-01-28T00:43:43;148767.69;;;-0.22;100.00
44926;BME280;30662;51.210;7.656;2023-01-28T00:46:10;148765.19;;;-0.23;100.00
44926;BME280;30662;51.210;7.656;2023-01-28T00:48:37;148756.41;;;-0.27;100.00
44926;BME280;30662;51.210;7.656;2023-01-28T00:51:05;148736.34;;;-0.35;100.00
44926;BME280;30662;51.210;7.656;2023-01-28T00:53:32;148726.28;;;-0.39;100.00
44926;BME280;30662;51.210;7.656;2023-01-28T00:55:59;148752.66;;;-0.29;100.00
44926;BME280;30662;51.210;7.656;2023-01-28T00:58:25;148741.34;;;-0.33;100.00
44926;BME280;30662;51.210;7.656;2023-01-28T01:00:51;148751.34;;;-0.29;100.00
44926;BME280;30662;51.210;7.656;2023-01-28T01:03:17;148774.00;;;-0.20;100.00
44926;BME280;30662;51.210;7.656;2023-01-28T01:05:44;148766.44;;;-0.23;100.00
44926;BME280;30662;51.210;7.656;2023-01-28T01:08:10;148771.47;;;-0.21;100.00
44926;BME280;30662;51.210;7.656;2023-01-28T01:10:37;148736.34;;;-0.35;100.00
44926;BME280;30662;51.210;7.656;2023-01-28T01:13:07;148742.59;;;-0.33;100.00
44926;BME280;30662;51.210;7.656;2023-01-28T01:15:33;148757.66;;;-0.26;100.00
44926;BME280;30662;51.210;7.656;2023-01-28T01:17:59;148750.09;;;-0.30;100.00
44926;BME280;30662;51.210;7.656;2023-01-28T01:20:27;148767.69;;;-0.22;100.00
44926;BME280;30662;51.210;7.656;2023-01-28T01:22:55;148740.09;;;-0.34;100.00
44926;BME280;30662;51.210;7.656;2023-01-28T01:25:21;148720.00;;;-0.42;100.00
44926;BME280;30662;51.210;7.656;2023-01-28T01:27:47;148736.34;;;-0.35;100.00
44926;BME280;30662;51.210;7.656;2023-01-28T01:30:14;148747.59;;;-0.31;100.00
44926;BME280;30662;51.210;7.656;2023-01-28T01:32:40;148740.09;;;-0.34;100.00
44926;BME280;30662;51.210;7.656;2023-01-28T01:35:07;148753.91;;;-0.28;100.00
44926;BME280;30662;51.210;7.656;2023-01-28T01:37:34;148755.16;;;-0.28;100.00
44926;BME280;30662;51.210;7.656;2023-01-28T01:40:01;148752.66;;;-0.29;100.00
44926;BME280;30662;51.210;7.656;2023-01-28T01:42:32;148751.34;;;-0.29;100.00
44926;BME280;30662;51.210;7.656;2023-01-28T01:45:06;148736.34;;;-0.35;100.00
44926;BME280;30662;51.210;7.656;2023-01-28T01:47:42;148738.84;;;-0.34;100.00
44926;BME280;30662;51.210;7.656;2023-01-28T01:50:30;148740.09;;;-0.34;100.00
44926;BME280;30662;51.210;7.656;2023-01-28T01:53:02;148757.66;;;-0.26;100.00
44926;BME280;30662;51.210;7.656;2023-01-28T01:55:30;148733.84;;;-0.36;100.00
44926;BME280;30662;51.210;7.656;2023-01-28T01:58:01;148730.03;;;-0.38;100.00
44926;BME280;30662;51.210;7.656;2023-01-28T02:00:29;148728.78;;;-0.38;100.00
44926;BME280;30662;51.210;7.656;2023-01-28T02:05:27;148735.09;;;-0.36;100.00
44926;BME280;30662;51.210;7.656;2023-01-28T02:07:56;148743.84;;;-0.32;100.00
44926;BME280;30662;51.210;7.656;2023-01-28T02:10:43;148740.09;;;-0.34;100.00
44926;BME280;30662;51.210;7.656;2023-01-28T02:13:10;148723.78;;;-0.40;100.00
44926;BME280;30662;51.210;7.656;2023-01-28T02:15:36;148722.50;;;-0.41;100.00
44926;BME280;30662;51.210;7.656;2023-01-28T02:18:02;148743.84;;;-0.32;100.00
44926;BME280;30662;51.210;7.656;2023-01-28T02:31:38;148727.53;;;-0.39;100.00
44926;BME280;30662;51.210;7.656;2023-01-28T02:37:14;148723.78;;;-0.40;100.00
44926;BME280;30662;51.210;7.656;2023-01-28T02:39:55;148728.78;;;-0.38;100.00
44926;BME280;30662;51.210;7.656;2023-01-28T02:42:31;148748.84;;;-0.30;100.00
44926;BME280;30662;51.210;7.656;2023-01-28T02:44:58;148721.28;;;-0.41;100.00
44926;BME280;30662;51.210;7.656;2023-01-28T02:47:24;148732.53;;;-0.37;100.00
44926;BME280;30662;51.210;7.656;2023-01-28T02:50:11;148716.25;;;-0.43;100.00
44926;BME280;30662;51.210;7.656;2023-01-28T02:55:38;148701.19;;;-0.49;100.00
44926;BME280;30662;51.210;7.656;2023-01-28T03:01:32;148689.88;;;-0.54;100.00
44926;BME280;30662;51.210;7.656;2023-01-28T03:04:15;148674.81;;;-0.60;100.00
44926;BME280;30662;51.210;7.656;2023-01-28T03:06:48;148717.50;;;-0.43;100.00
44926;BME280;30662;51.210;7.656;2023-01-28T03:09:16;148699.94;;;-0.50;100.00
44926;BME280;30662;51.210;7.656;2023-01-28T03:11:58;148702.44;;;-0.49;100.00
44926;BME280;30662;51.210;7.656;2023-01-28T03:14:52;148703.69;;;-0.48;100.00
44926;BME280;30662;51.210;7.656;2023-01-28T03:17:49;148692.38;;;-0.53;100.00
44926;BME280;30662;51.210;7.656;2023-01-28T03:20:47;148657.25;;;-0.67;100.00
44926;BME280;30662;51.210;7.656;2023-01-28T03:23:41;148678.56;;;-0.59;100.00
44926;BME280;30662;51.210;7.656;2023-01-28T03:26:30;148662.28;;;-0.65;100.00
44926;BME280;30662;51.210;7.656;2023-01-28T03:29:19;148653.50;;;-0.69;100.00
44926;BME280;30662;51.210;7.656;2023-01-28T03:32:08;148605.78;;;-0.88;100.00
44926;BME280;30662;51.210;7.656;2023-01-28T03:34:54;148618.34;;;-0.83;100.00
44926;BME280;30662;51.210;7.656;2023-01-28T03:37:39;148638.41;;;-0.75;100.00
44926;BME280;30662;51.210;7.656;2023-01-28T03:40:06;148661.00;;;-0.66;100.00
44926;BME280;30662;51.210;7.656;2023-01-28T03:42:32;148640.94;;;-0.74;100.00
44926;BME280;30662;51.210;7.656;2023-01-28T03:44:59;148638.41;;;-0.75;100.00
44926;BME280;30662;51.210;7.656;2023-01-28T03:47:28;148639.66;;;-0.74;100.00
44926;BME280;30662;51.210;7.656;2023-01-28T03:49:55;148639.66;;;-0.74;100.00
44926;BME280;30662;51.210;7.656;2023-01-28T03:52:24;148618.34;;;-0.83;100.00
44926;BME280;30662;51.210;7.656;2023-01-28T03:54:51;148593.28;;;-0.93;100.00
44926;BME280;30662;51.210;7.656;2023-01-28T03:57:23;148629.66;;;-0.78;100.00
44926;BME280;30662;51.210;7.656;2023-01-28T03:59:50;148622.09;;;-0.81;100.00
44926;BME280;30662;51.210;7.656;2023-01-28T04:02:19;148609.59;;;-0.87;100.00
44926;BME280;30662;51.210;7.656;2023-01-28T04:04:45;148618.34;;;-0.83;100.00
44926;BME280;30662;51.210;7.656;2023-01-28T04:07:12;148633.41;;;-0.77;100.00
44926;BME280;30662;51.210;7.656;2023-01-28T04:09:42;148649.72;;;-0.70;100.00
44926;BME280;30662;51.210;7.656;2023-01-28T04:12:08;148649.72;;;-0.70;100.00
44926;BME280;30662;51.210;7.656;2023-01-28T04:14:34;148647.22;;;-0.71;100.00
44926;BME280;30662;51.210;7.656;2023-01-28T04:17:00;148644.72;;;-0.72;100.00
44926;BME280;30662;51.210;7.656;2023-01-28T04:19:26;148644.72;;;-0.72;100.00
44926;BME280;30662;51.210;7.656;2023-01-28T04:21:53;148629.66;;;-0.78;100.00
44926;BME280;30662;51.210;7.656;2023-01-28T04:24:20;148628.41;;;-0.79;100.00
44926;BME280;30662;51.210;7.656;2023-01-28T04:26:46;148628.41;;;-0.79;100.00
44926;BME280;30662;51.210;7.656;2023-01-28T04:29:12;148614.59;;;-0.85;100.00
44926;BME280;30662;51.210;7.656;2023-01-28T04:31:38;148608.28;;;-0.87;100.00
44926;BME280;30662;51.210;7.656;2023-01-28T04:34:04;148571.91;;;-1.02;100.00
44926;BME280;30662;51.210;7.656;2023-01-28T04:36:30;148561.91;;;-1.06;100.00
44926;BME280;30662;51.210;7.656;2023-01-28T04:38:56;148536.78;;;-1.16;100.00
44926;BME280;30662;51.210;7.656;2023-01-28T04:41:22;148539.34;;;-1.15;100.00
44926;BME280;30662;51.210;7.656;2023-01-28T04:43:48;148530.53;;;-1.19;100.00
44926;BME280;30662;51.210;7.656;2023-01-28T04:46:15;148565.66;;;-1.04;100.00
44926;BME280;30662;51.210;7.656;2023-01-28T04:48:41;148565.66;;;-1.04;100.00
44926;BME280;30662;51.210;7.656;2023-01-28T04:51:07;148578.22;;;-0.99;100.00
44926;BME280;30662;51.210;7.656;2023-01-28T04:53:33;148590.72;;;-0.94;100.00
44926;BME280;30662;51.210;7.656;2023-01-28T04:55:59;148574.47;;;-1.01;100.00
44926;BME280;30662;51.210;7.656;2023-01-28T04:58:25;148578.22;;;-0.99;100.00
44926;BME280;30662;51.210;7.656;2023-01-28T05:00:56;148528.03;;;-1.20;100.00
44926;BME280;30662;51.210;7.656;2023-01-28T05:03:23;148551.84;;;-1.10;100.00
44926;BME280;30662;51.210;7.656;2023-01-28T05:05:49;148526.78;;;-1.20;100.00
44926;BME280;30662;51.210;7.656;2023-01-28T05:08:16;148538.09;;;-1.16;100.00
44926;BME280;30662;51.210;7.656;2023-01-28T05:10:42;148521.78;;;-1.22;100.00
44926;BME280;30662;51.210;7.656;2023-01-28T05:13:09;148540.59;;;-1.15;100.00
44926;BME280;30662;51.210;7.656;2023-01-28T05:15:34;148520.53;;;-1.23;100.00
44926;BME280;30662;51.210;7.656;2023-01-28T05:18:00;148545.59;;;-1.13;100.00
44926;BME280;30662;51.210;7.656;2023-01-28T05:20:26;148496.66;;;-1.32;100.00
44926;BME280;30662;51.210;7.656;2023-01-28T05:22:52;148494.16;;;-1.33;100.00
44926;BME280;30662;51.210;7.656;2023-01-28T05:25:18;148507.97;;;-1.28;100.00
44926;BME280;30662;51.210;7.656;2023-01-28T05:27:49;148512.97;;;-1.26;100.00
44926;BME280;30662;51.210;7.656;2023-01-28T05:30:17;148504.22;;;-1.29;100.00
44926;BME280;30662;51.210;7.656;2023-01-28T05:32:43;148484.16;;;-1.37;100.00
44926;BME280;30662;51.210;7.656;2023-01-28T05:35:09;148489.16;;;-1.35;100.00
44926;BME280;30662;51.210;7.656;2023-01-28T05:37:34;148472.84;;;-1.42;100.00
44926;BME280;30662;51.210;7.656;2023-01-28T05:40:00;148500.41;;;-1.31;100.00
44926;BME280;30662;51.210;7.656;2023-01-28T05:42:26;148500.41;;;-1.31;100.00
44926;BME280;30662;51.210;7.656;2023-01-28T05:44:52;148507.97;;;-1.28;100.00
44926;BME280;30662;51.210;7.656;2023-01-28T05:47:18;148511.72;;;-1.26;100.00
44926;BME280;30662;51.210;7.656;2023-01-28T05:49:44;148520.53;;;-1.23;100.00
44926;BME280;30662;51.210;7.656;2023-01-28T05:52:11;148496.66;;;-1.32;100.00
44926;BME280;30662;51.210;7.656;2023-01-28T05:54:37;148481.59;;;-1.39;100.00
44926;BME280;30662;51.210;7.656;2023-01-28T05:57:03;148482.84;;;-1.38;100.00
44926;BME280;30662;51.210;7.656;2023-01-28T05:59:29;148499.16;;;-1.31;100.00
44926;BME280;30662;51.210;7.656;2023-01-28T06:01:55;148525.53;;;-1.21;100.00
44926;BME280;30662;51.210;7.656;2023-01-28T06:04:21;148507.97;;;-1.28;100.00
44926;BME280;30662;51.210;7.656;2023-01-28T06:06:46;148512.97;;;-1.26;100.00
44926;BME280;30662;51.210;7.656;2023-01-28T06:09:12;148472.84;;;-1.42;100.00
44926;BME280;30662;51.210;7.656;2023-01-28T06:11:38;148506.72;;;-1.28;100.00
44926;BME280;30662;51.210;7.656;2023-01-28T06:14:04;148511.72;;;-1.26;100.00
44926;BME280;30662;51.210;7.656;2023-01-28T06:16:30;148529.28;;;-1.19;100.00
44926;BME280;30662;51.210;7.656;2023-01-28T06:18:56;148538.09;;;-1.16;100.00
44926;BME280;30662;51.210;7.656;2023-01-28T06:21:22;148525.53;;;-1.21;100.00
44926;BME280;30662;51.210;7.656;2023-01-28T06:23:48;148487.91;;;-1.36;100.00
44926;BME280;30662;51.210;7.656;2023-01-28T06:26:14;148489.16;;;-1.35;100.00
44926;BME280;30662;51.210;7.656;2023-01-28T06:28:40;148501.72;;;-1.30;100.00
44926;BME280;30662;51.210;7.656;2023-01-28T06:31:05;148486.66;;;-1.36;100.00
44926;BME280;30662;51.210;7.656;2023-01-28T06:33:31;148490.41;;;-1.35;100.00
44926;BME280;30662;51.210;7.656;2023-01-28T06:36:01;148479.09;;;-1.40;100.00
44926;BME280;30662;51.210;7.656;2023-01-28T06:38:28;148479.09;;;-1.40;100.00
44926;BME280;30662;51.210;7.656;2023-01-28T06:40:54;148492.91;;;-1.34;100.00
44926;BME280;30662;51.210;7.656;2023-01-28T06:43:21;148492.91;;;-1.34;100.00
44926;BME280;30662;51.210;7.656;2023-01-28T06:45:53;148517.97;;;-1.24;100.00
44926;BME280;30662;51.210;7.656;2023-01-28T06:48:20;148487.91;;;-1.36;100.00
44926;BME280;30662;51.210;7.656;2023-01-28T06:50:46;148470.34;;;-1.43;100.00
44926;BME280;30662;51.210;7.656;2023-01-28T06:53:13;148485.41;;;-1.37;100.00
44926;BME280;30662;51.210;7.656;2023-01-28T06:55:39;148497.91;;;-1.32;100.00
44926;BME280;30662;51.210;7.656;2023-01-28T06:58:05;148489.16;;;-1.35;100.00
44926;BME280;30662;51.210;7.656;2023-01-28T07:00:31;148485.41;;;-1.37;100.00
44926;BME280;30662;51.210;7.656;2023-01-28T07:02:57;148496.66;;;-1.32;100.00
44926;BME280;30662;51.210;7.656;2023-01-28T07:05:23;148439.00;;;-1.56;100.00
44926;BME280;30662;51.210;7.656;2023-01-28T07:07:49;148418.94;;;-1.64;100.00
44926;BME280;30662;51.210;7.656;2023-01-28T07:10:15;148442.72;;;-1.54;100.00
44926;BME280;30662;51.210;7.656;2023-01-28T07:12:42;148455.28;;;-1.49;100.00
44926;BME280;30662;51.210;7.656;2023-01-28T07:15:11;148435.22;;;-1.57;100.00
44926;BME280;30662;51.210;7.656;2023-01-28T07:17:41;148457.78;;;-1.48;100.00
44926;BME280;30662;51.210;7.656;2023-01-28T07:20:08;148460.28;;;-1.47;100.00
44926;BME280;30662;51.210;7.656;2023-01-28T07:22:37;148436.47;;;-1.57;100.00
44926;BME280;30662;51.210;7.656;2023-01-28T07:25:04;148459.03;;;-1.48;100.00
44926;BME280;30662;51.210;7.656;2023-01-28T07:27:30;148444.00;;;-1.54;100.00
44926;BME280;30662;51.210;7.656;2023-01-28T07:29:56;148449.03;;;-1.52;100.00
44926;BME280;30662;51.210;7.656;2023-01-28T07:32:22;148441.50;;;-1.55;100.00
44926;BME280;30662;51.210;7.656;2023-01-28T07:34:51;148459.03;;;-1.48;100.00
44926;BME280;30662;51.210;7.656;2023-01-28T07:37:17;148439.00;;;-1.56;100.00
44926;BME280;30662;51.210;7.656;2023-01-28T07:39:43;148467.84;;;-1.44;100.00
44926;BME280;30662;51.210;7.656;2023-01-28T07:42:09;148436.47;;;-1.57;100.00
44926;BME280;30662;51.210;7.656;2023-01-28T07:44:35;148454.03;;;-1.50;100.00
44926;BME280;30662;51.210;7.656;2023-01-28T07:47:03;148451.53;;;-1.51;100.00
44926;BME280;30662;51.210;7.656;2023-01-28T07:49:30;148459.03;;;-1.48;100.00
44926;BME280;30662;51.210;7.656;2023-01-28T07:51:55;148428.94;;;-1.60;100.00
44926;BME280;30662;51.210;7.656;2023-01-28T07:54:21;148461.53;;;-1.47;100.00
44926;BME280;30662;51.210;7.656;2023-01-28T07:56:47;148477.84;;;-1.40;100.00
44926;BME280;30662;51.210;7.656;2023-01-28T07:59:13;148501.72;;;-1.30;100.00
44926;BME280;30662;51.210;7.656;2023-01-28T08:01:39;148517.97;;;-1.24;100.00
44926;BME280;30662;51.210;7.656;2023-01-28T08:04:05;148520.53;;;-1.23;100.00
44926;BME280;30662;51.210;7.656;2023-01-28T08:06:31;148516.72;;;-1.24;100.00
44926;BME280;30662;51.210;7.656;2023-01-28T08:09:06;148510.47;;;-1.27;100.00
44926;BME280;30662;51.210;7.656;2023-01-28T08:11:33;148489.16;;;-1.35;100.00
44926;BME280;30662;51.210;7.656;2023-01-28T08:14:02;148471.59;;;-1.43;100.00
44926;BME280;30662;51.210;7.656;2023-01-28T08:16:27;148480.34;;;-1.39;100.00
44926;BME280;30662;51.210;7.656;2023-01-28T08:18:53;148482.84;;;-1.38;100.00
44926;BME280;30662;51.210;7.656;2023-01-28T08:21:19;148456.53;;;-1.49;100.00
44926;BME280;30662;51.210;7.656;2023-01-28T08:23:45;148485.41;;;-1.37;100.00
44926;BME280;30662;51.210;7.656;2023-01-28T08:26:11;148510.47;;;-1.27;100.00
44926;BME280;30662;51.210;7.656;2023-01-28T08:28:37;148477.84;;;-1.40;100.00
44926;BME280;30662;51.210;7.656;2023-01-28T08:31:03;148497.91;;;-1.32;100.00
44926;BME280;30662;51.210;7.656;2023-01-28T08:33:29;148489.16;;;-1.35;100.00
44926;BME280;30662;51.210;7.656;2023-01-28T08:35:55;148500.41;;;-1.31;100.00
44926;BME280;30662;51.210;7.656;2023-01-28T08:38:21;148504.22;;;-1.29;100.00
44926;BME280;30662;51.210;7.656;2023-01-28T08:40:47;148529.28;;;-1.19;100.00
44926;BME280;30662;51.210;7.656;2023-01-28T08:43:15;148533.03;;;-1.18;100.00
44926;BME280;30662;51.210;7.656;2023-01-28T08:45:41;148533.03;;;-1.18;100.00
44926;BME280;30662;51.210;7.656;2023-01-28T08:48:11;148548.09;;;-1.12;100.00
44926;BME280;30662;51.210;7.656;2023-01-28T08:50:39;148575.72;;;-1.00;100.00
44926;BME280;30662;51.210;7.656;2023-01-28T08:53:10;148575.72;;;-1.00;100.00
44926;BME280;30662;51.210;7.656;2023-01-28T08:55:36;148536.78;;;-1.16;100.00
44926;BME280;30662;51.210;7.656;2023-01-28T08:58:04;148548.09;;;-1.12;100.00
44926;BME280;30662;51.210;7.656;2023-01-28T09:00:31;148544.34;;;-1.13;100.00
44926;BME280;30662;51.210;7.656;2023-01-28T09:02:57;148545.59;;;-1.13;100.00
44926;BME280;30662;51.210;7.656;2023-01-28T09:05:23;148575.72;;;-1.00;100.00
44926;BME280;30662;51.210;7.656;2023-01-28T09:07:49;148579.47;;;-0.99;100.00
44926;BME280;30662;51.210;7.656;2023-01-28T09:10:16;148588.22;;;-0.95;100.00
44926;BME280;30662;51.210;7.656;2023-01-28T09:12:45;148612.09;;;-0.86;100.00
44926;BME280;30662;51.210;7.656;2023-01-28T09:15:11;148595.78;;;-0.92;100.00
44926;BME280;30662;51.210;7.656;2023-01-28T09:17:38;148594.53;;;-0.93;100.00
44926;BME280;30662;51.210;7.656;2023-01-28T09:20:05;148590.72;;;-0.94;100.00
44926;BME280;30662;51.210;7.656;2023-01-28T09:22:31;148589.47;;;-0.95;100.00
44926;BME280;30662;51.210;7.656;2023-01-28T09:24:58;148559.41;;;-1.07;100.00
44926;BME280;30662;51.210;7.656;2023-01-28T09:27:23;148545.59;;;-1.13;100.00
44926;BME280;30662;51.210;7.656;2023-01-28T09:29:49;148546.84;;;-1.12;100.00
44926;BME280;30662;51.210;7.656;2023-01-28T09:32:15;148546.84;;;-1.12;100.00
44926;BME280;30662;51.210;7.656;2023-01-28T09:34:41;148539.34;;;-1.15;100.00
44926;BME280;30662;51.210;7.656;2023-01-28T09:37:09;148561.91;;;-1.06;100.00
44926;BME280;30662;51.210;7.656;2023-01-28T09:39:36;148521.78;;;-1.22;100.00
44926;BME280;30662;51.210;7.656;2023-01-28T09:47:33;148523.03;;;-1.22;100.00
44926;BME280;30662;51.210;7.656;2023-01-28T09:50:04;148568.16;;;-1.03;100.00
44926;BME280;30662;51.210;7.656;2023-01-28T09:52:34;148548.09;;;-1.12;100.00
44926;BME280;30662;51.210;7.656;2023-01-28T09:55:06;148564.41;;;-1.05;100.00
44926;BME280;30662;51.210;7.656;2023-01-28T09:57:44;148540.59;;;-1.15;100.00
44926;BME280;30662;51.210;7.656;2023-01-28T10:00:23;148534.28;;;-1.17;100.00
44926;BME280;30662;51.210;7.656;2023-01-28T10:11:19;148507.97;;;-1.28;100.00
44926;BME280;30662;51.210;7.656;2023-01-28T10:16:49;148539.34;;;-1.15;100.00
44926;BME280;30662;51.210;7.656;2023-01-28T10:19:29;148521.78;;;-1.22;100.00
44926;BME280;30662;51.210;7.656;2023-01-28T10:22:01;148559.41;;;-1.07;100.00
44926;BME280;30662;51.210;7.656;2023-01-28T10:24:33;148539.34;;;-1.15;100.00
44926;BME280;30662;51.210;7.656;2023-01-28T10:27:02;148558.16;;;-1.07;100.00
44926;BME280;30662;51.210;7.656;2023-01-28T10:29:32;148588.22;;;-0.95;100.00
44926;BME280;30662;51.210;7.656;2023-01-28T10:32:04;148605.78;;;-0.88;100.00
44926;BME280;30662;51.210;7.656;2023-01-28T10:34:30;148618.34;;;-0.83;100.00
44926;BME280;30662;51.210;7.656;2023-01-28T10:36:57;148602.03;;;-0.90;100.00
44926;BME280;30662;51.210;7.656;2023-01-28T10:39:24;148568.16;;;-1.03;100.00
44926;BME280;30662;51.210;7.656;2023-01-28T10:41:51;148580.72;;;-0.98;100.00
44926;BME280;30662;51.210;7.656;2023-01-28T10:44:34;148595.78;;;-0.92;100.00
44926;BME280;30662;51.210;7.656;2023-01-28T10:47:09;148642.19;;;-0.73;100.00
44926;BME280;30662;51.210;7.656;2023-01-28T10:49:41;148633.41;;;-0.77;100.00
44926;BME280;30662;51.210;7.656;2023-01-28T10:52:12;148615.84;;;-0.84;100.00
44926;BME280;30662;51.210;7.656;2023-01-28T10:54:38;148592.03;;;-0.94;100.00
44926;BME280;30662;51.210;7.656;2023-01-28T10:57:09;148627.16;;;-0.79;100.00
44926;BME280;30662;51.210;7.656;2023-01-28T10:59:38;148619.59;;;-0.82;100.00
44926;BME280;30662;51.210;7.656;2023-01-28T11:02:27;148610.84;;;-0.86;100.00
44926;BME280;30662;51.210;7.656;2023-01-28T11:05:15;148575.72;;;-1.00;100.00
44926;BME280;30662;51.210;7.656;2023-01-28T11:07:42;148578.22;;;-0.99;100.00
44926;BME280;30662;51.210;7.656;2023-01-28T11:10:24;148625.84;;;-0.80;100.00
44926;BME280;30662;51.210;7.656;2023-01-28T11:12:56;148574.47;;;-1.01;100.00
44926;BME280;30662;51.210;7.656;2023-01-28T11:15:22;148564.41;;;-1.05;100.00
44926;BME280;30662;51.210;7.656;2023-01-28T11:17:54;148605.78;;;-0.88;100.00
44926;BME280;30662;51.210;7.656;2023-01-28T11:20:23;148543.09;;;-1.14;100.00
44926;BME280;30662;51.210;7.656;2023-01-28T11:22:51;148559.41;;;-1.07;100.00
44926;BME280;30662;51.210;7.656;2023-01-28T11:25:23;148569.41;;;-1.03;100.00
44926;BME280;30662;51.210;7.656;2023-01-28T11:27:51;148539.34;;;-1.15;100.00
44926;BME280;30662;51.210;7.656;2023-01-28T11:30:25;148549.34;;;-1.11;100.00
44926;BME280;30662;51.210;7.656;2023-01-28T11:35:40;148573.22;;;-1.01;100.00
44926;BME280;30662;51.210;7.656;2023-01-28T11:38:18;148571.91;;;-1.02;100.00
44926;BME280;30662;51.210;7.656;2023-01-28T11:40:56;148573.22;;;-1.01;100.00
44926;BME280;30662;51.210;7.656;2023-01-28T11:43:28;148548.09;;;-1.12;100.00
44926;BME280;30662;51.210;7.656;2023-01-28T11:57:15;148592.03;;;-0.94;100.00
44926;BME280;30662;51.210;7.656;2023-01-28T12:02:53;148550.59;;;-1.11;100.00
44926;BME280;30662;51.210;7.656;2023-01-28T12:05:40;148541.84;;;-1.14;100.00
44926;BME280;30662;51.210;7.656;2023-01-28T12:17:36;148514.22;;;-1.25;100.00
44926;BME280;30662;51.210;7.656;2023-01-28T12:19:53;148520.53;;;-1.23;100.00
44926;BME280;30662;51.210;7.656;2023-01-28T12:34:14;148506.72;;;-1.28;100.00
44926;BME280;30662;51.210;7.656;2023-01-28T12:42:22;148560.66;;;-1.06;100.00
44926;BME280;30662;51.210;7.656;2023-01-28T12:44:57;148541.84;;;-1.14;100.00
44926;BME280;30662;51.210;7.656;2023-01-28T12:47:33;148517.97;;;-1.24;100.00
44926;BME280;30662;51.210;7.656;2023-01-28T12:50:11;148512.97;;;-1.26;100.00
44926;BME280;30662;51.210;7.656;2023-01-28T12:52:43;148546.84;;;-1.12;100.00
44926;BME280;30662;51.210;7.656;2023-01-28T12:55:47;148600.78;;;-0.90;100.00
44926;BME280;30662;51.210;7.656;2023-01-28T12:58:12;148594.53;;;-0.93;100.00
44926;BME280;30662;51.210;7.656;2023-01-28T13:00:45;148549.34;;;-1.11;100.00
44926;BME280;30662;51.210;7.656;2023-01-28T13:03:37;148623.34;;;-0.81;100.00
44926;BME280;30662;51.210;7.656;2023-01-28T13:08:56;148638.41;;;-0.75;100.00
44926;BME280;30662;51.210;7.656;2023-01-28T13:11:32;148707.44;;;-0.47;100.00
44926;BME280;30662;51.210;7.656;2023-01-28T13:14:00;148722.50;;;-0.41;96.66
44926;BME280;30662;51.210;7.656;2023-01-28T13:16:27;148755.16;;;-0.28;97.31
44926;BME280;30662;51.210;7.656;2023-01-28T13:19:23;148814.16;;;-0.04;95.69
44926;BME280;30662;51.210;7.656;2023-01-28T13:21:50;148806.63;;;-0.07;94.82
44926;BME280;30662;51.210;7.656;2023-01-28T13:24:20;148870.66;;;0.19;92.67
44926;BME280;30662;51.210;7.656;2023-01-28T13:26:56;148964.84;;;0.58;90.70
44926;BME280;30662;51.210;7.656;2023-01-28T13:29:32;149553.28;;;2.96;79.44
44926;BME280;30662;51.210;7.656;2023-01-28T13:32:01;149744.69;;;3.73;68.26
44926;BME280;30662;51.210;7.656;2023-01-28T13:37:06;149308.00;;;1.97;78.28
44926;BME280;30662;51.210;7.656;2023-01-28T13:39:34;149120.66;;;1.21;82.91
44926;BME280;30662;51.210;7.656;2023-01-28T13:42:30;149126.97;;;1.23;85.07
44926;BME280;30662;51.210;7.656;2023-01-28T13:47:48;149179.72;;;1.45;84.59
44926;BME280;30662;51.210;7.656;2023-01-28T13:50:19;149119.41;;;1.20;84.45
44926;BME280;30662;51.210;7.656;2023-01-28T13:53:03;149074.19;;;1.02;88.05
44926;BME280;30662;51.210;7.656;2023-01-28T13:55:37;149039.00;;;0.88;85.17
44926;BME280;30662;51.210;7.656;2023-01-28T14:01:30;148995.00;;;0.70;88.90
44926;BME280;30662;51.210;7.656;2023-01-28T14:04:21;149003.81;;;0.73;88.21
44926;BME280;30662;51.210;7.656;2023-01-28T14:07:24;148932.22;;;0.44;88.50
44926;BME280;30662;51.210;7.656;2023-01-28T14:13:19;148836.75;;;0.06;89.31
44926;BME280;30662;51.210;7.656;2023-01-28T14:16:25;148782.75;;;-0.16;91.74
44926;BME280;30662;51.210;7.656;2023-01-28T14:18:58;148787.81;;;-0.14;93.56
44926;BME280;30662;51.210;7.656;2023-01-28T14:21:27;148855.56;;;0.13;91.90
44926;BME280;30662;51.210;7.656;2023-01-28T14:23:56;148885.72;;;0.25;91.55
44926;BME280;30662;51.210;7.656;2023-01-28T14:31:38;148809.13;;;-0.06;92.98
44926;BME280;30662;51.210;7.656;2023-01-28T14:36:55;148750.09;;;-0.30;94.70
44926;BME280;30662;51.210;7.656;2023-01-28T14:39:27;148738.84;;;-0.34;95.61
44926;BME280;30662;51.210;7.656;2023-01-28T14:41:55;148774.00;;;-0.20;96.39